createdAt,value
2016-06-09T05:20:29.719Z,65.17
2016-06-09T05:21:22.813Z,64.98
2016-06-09T05:22:23.254Z,65.08
2016-06-09T05:23:23.272Z,65.08
2016-06-09T05:24:23.306Z,64.98
2016-06-09T05:25:23.294Z,65.08
2016-06-09T05:26:23.501Z,64.59
2016-06-09T05:27:23.770Z,64.69
2016-06-09T05:28:23.319Z,64.82
2016-06-09T05:29:23.353Z,64.69
2016-06-09T05:30:23.357Z,64.79
2016-06-09T05:31:23.375Z,64.72
2016-06-09T05:32:23.800Z,64.92
2016-06-09T05:33:24.038Z,64.63
2016-06-09T05:34:23.728Z,64.53
2016-06-09T05:35:24.028Z,64.15
2016-06-09T05:36:22.938Z,64.43
2016-06-09T05:37:23.440Z,64.05
2016-06-09T05:38:23.428Z,64.15
2016-06-09T05:39:23.462Z,64.28
2016-06-09T05:40:23.653Z,63.99
2016-06-09T05:41:23.891Z,63.79
2016-06-09T05:42:37.756Z,63.7
2016-06-09T05:43:23.475Z,63.32
2016-06-09T05:44:23.492Z,63.51
2016-06-09T05:45:23.731Z,63.51
2016-06-09T05:46:23.514Z,63.6
2016-06-09T05:47:23.721Z,62.55
2016-06-09T05:48:23.599Z,62.45
2016-06-09T05:49:23.743Z,63.02
2016-06-09T05:50:24.715Z,62.55
2016-06-09T05:51:23.796Z,62.64
2016-06-09T05:52:23.564Z,62.84
2016-06-09T05:53:23.583Z,62.74
2016-06-09T05:54:23.586Z,62.68
2016-06-09T05:55:23.606Z,62.58
2016-06-09T05:56:23.624Z,62.87
2016-06-09T05:57:23.626Z,63.06
2016-06-09T05:58:23.661Z,62.87
2016-06-09T05:59:23.649Z,62.58
2016-06-09T06:00:23.917Z,62.29
2016-06-09T06:01:23.561Z,62.38
2016-06-09T06:02:23.721Z,62.77
2016-06-09T06:03:23.708Z,62.29
2016-06-09T06:04:24.305Z,62.1
2016-06-09T06:05:38.139Z,62.38
2016-06-09T06:06:23.732Z,62.19
2016-06-09T06:07:23.751Z,62.48
2016-06-09T06:08:23.754Z,62.48
2016-06-09T06:09:23.773Z,62.58
2016-06-09T06:10:23.980Z,62.29
2016-06-09T06:11:24.201Z,62.38
2016-06-09T06:12:24.033Z,63.06
2016-06-09T06:13:37.929Z,62.23
2016-06-09T06:14:23.820Z,62.29
2016-06-09T06:15:23.838Z,62
2016-06-09T06:16:24.045Z,61.91
2016-06-09T06:17:24.094Z,62.38
2016-06-09T06:18:23.879Z,62.1
2016-06-09T06:19:23.883Z,62.1
2016-06-09T06:20:24.308Z,62.19
2016-06-09T06:21:23.904Z,62
2016-06-09T06:23:24.176Z,62
2016-06-09T06:24:24.210Z,62.58
2016-06-09T06:25:24.166Z,62.48
2016-06-09T06:26:23.966Z,62.29
2016-06-09T06:27:24.000Z,62.48
2016-06-09T06:28:24.019Z,62.38
2016-06-09T06:29:24.006Z,62.19
2016-06-09T06:30:24.214Z,62.77
2016-06-09T06:31:24.028Z,62.77
2016-06-09T06:32:24.015Z,62.77
2016-06-09T06:33:38.132Z,62.77
2016-06-09T06:34:24.288Z,62.96
2016-06-09T06:35:24.493Z,62.77
2016-06-09T06:36:24.278Z,62.96
2016-06-09T06:37:24.094Z,62.68
2016-06-09T06:38:24.097Z,62.38
2016-06-09T06:39:24.116Z,62.38
2016-06-09T06:40:24.119Z,62.48
2016-06-09T06:41:23.684Z,62.58
2016-06-09T06:42:24.171Z,62.1
2016-06-09T06:43:24.362Z,62.38
2016-06-09T06:44:24.194Z,62.38
2016-06-09T06:45:24.212Z,62.58
2016-06-09T06:46:24.246Z,62.29
2016-06-09T06:47:24.218Z,62.29
2016-06-09T06:48:24.222Z,62.61
2016-06-09T06:49:24.225Z,62.13
2016-06-09T06:50:24.353Z,62.13
2016-06-09T06:51:24.090Z,61.94
2016-06-09T06:52:24.264Z,62.32
2016-06-09T06:53:24.284Z,61.84
2016-06-09T06:54:24.490Z,62.23
2016-06-09T06:55:24.727Z,61.84
2016-06-09T06:56:24.949Z,61.84
2016-06-09T06:57:24.530Z,61.84
2016-06-09T06:58:24.330Z,61.84
2016-06-09T06:59:24.349Z,61.74
2016-06-09T07:00:24.352Z,61.39
2016-06-09T07:01:24.370Z,61.49
2016-06-09T07:02:24.389Z,61.58
2016-06-09T07:03:24.393Z,61.87
2016-06-09T07:04:24.396Z,61.1
2016-06-09T07:05:24.523Z,60.81
2016-06-09T07:06:24.449Z,60.62
2016-06-09T07:07:24.467Z,60.52
2016-06-09T07:08:24.470Z,60.24
2016-06-09T07:10:24.679Z,60.17
2016-06-09T07:11:24.480Z,60.52
2016-06-09T07:12:24.701Z,60.27
2016-06-09T07:13:24.532Z,60.55
2016-06-09T07:14:24.754Z,60.17
2016-06-09T07:15:24.555Z,59.88
2016-06-09T07:16:24.604Z,59.2
2016-06-09T07:17:24.592Z,59.3
2016-06-09T07:18:24.578Z,59.11
2016-06-09T07:20:24.632Z,58.17
2016-06-09T07:21:24.620Z,58.47
2016-06-09T07:22:24.841Z,58.08
2016-06-09T07:23:24.641Z,58.37
2016-06-09T07:24:24.660Z,58.47
2016-06-09T07:25:24.678Z,58.85
2016-06-09T07:26:24.682Z,58.08
2016-06-09T07:27:24.701Z,58.37
2016-06-09T07:28:24.704Z,58.37
2016-06-09T07:29:24.722Z,58.37
2016-06-09T07:30:24.726Z,57.69
2016-06-09T07:31:24.760Z,57.98
2016-06-09T07:32:24.779Z,58.27
2016-06-09T07:33:24.782Z,58.15
2016-06-09T07:34:24.784Z,58.24
2016-06-09T07:35:25.131Z,58.34
2016-06-09T07:36:24.806Z,58.24
2016-06-09T07:37:24.809Z,58.82
2016-06-09T07:38:24.828Z,58.72
2016-06-09T07:39:24.690Z,58.34
2016-06-09T07:40:24.896Z,59.43
2016-06-09T07:41:38.949Z,58.27
2016-06-09T07:42:24.887Z,58.27
2016-06-09T07:43:39.174Z,57.69
2016-06-09T07:44:25.299Z,58.27
2016-06-09T07:46:24.931Z,57.98
2016-06-09T07:47:24.950Z,57.31
2016-06-09T07:48:25.671Z,57.31
2016-06-09T07:49:24.987Z,57.31
2016-06-09T07:50:25.240Z,58.08
2016-06-09T07:51:39.075Z,57.82
2016-06-09T07:52:25.434Z,58.11
2016-06-09T07:53:25.030Z,57.14
2016-06-09T07:54:25.455Z,56.57
2016-06-09T07:55:25.052Z,55.99
2016-06-09T07:56:25.087Z,56.57
2016-06-09T07:57:25.106Z,56.18
2016-06-09T07:58:25.280Z,56.76
2016-06-09T07:59:25.548Z,56.95
2016-06-09T08:00:25.318Z,56.66
2016-06-09T08:01:25.133Z,56.66
2016-06-09T08:02:24.683Z,57.43
2016-06-09T08:03:25.170Z,56.76
2016-06-09T08:04:25.173Z,56.47
2016-06-09T08:05:25.786Z,56.57
2016-06-09T08:06:25.196Z,56.27
2016-06-09T08:07:25.198Z,56.15
2016-06-09T08:08:25.218Z,56.27
2016-06-09T08:09:25.268Z,56.15
2016-06-09T08:10:25.238Z,55.96
2016-06-09T08:11:25.274Z,55.57
2016-06-09T08:12:25.480Z,56.27
2016-06-09T08:13:25.497Z,55.48
2016-06-09T08:14:25.329Z,56.25
2016-06-09T08:15:25.316Z,55.57
2016-06-09T08:16:25.335Z,56.63
2016-06-09T08:17:25.338Z,56.05
2016-06-09T08:18:25.357Z,55.96
2016-06-09T08:19:25.360Z,55.96
2016-06-09T08:20:26.270Z,56.05
2016-06-09T08:21:25.616Z,56.15
2016-06-09T08:22:25.401Z,55.67
2016-06-09T08:23:25.419Z,55.87
2016-06-09T08:24:25.423Z,56.05
2016-06-09T08:25:25.444Z,56.05
2016-06-09T08:26:25.489Z,55.96
2016-06-09T08:27:25.550Z,55.67
2016-06-09T08:28:25.626Z,55.09
2016-06-09T08:29:25.673Z,54.42
2016-06-09T08:30:25.717Z,55.29
2016-06-09T08:31:25.954Z,54.64
2016-06-09T08:32:26.176Z,54.54
2016-06-09T08:33:25.804Z,54.83
2016-06-09T08:34:25.837Z,54.16
2016-06-09T08:35:26.418Z,53.31
2016-06-09T08:36:25.880Z,53.61
2016-06-09T08:37:25.905Z,53.61
2016-06-09T08:38:25.913Z,53.13
2016-06-09T08:39:40.022Z,53.05
2016-06-09T08:40:25.944Z,52.76
2016-06-09T08:41:25.980Z,53.05
2016-06-09T08:42:26.002Z,52.67
2016-06-09T08:43:26.007Z,52.19
2016-06-09T08:44:26.215Z,52.09
2016-06-09T08:45:26.063Z,52.09
2016-06-09T08:46:26.098Z,52.19
2016-06-09T08:48:26.825Z,51.7
2016-06-09T08:49:26.095Z,51.05
2016-06-09T08:50:26.130Z,51.15
2016-06-09T08:51:26.117Z,51.82
2016-06-09T08:52:26.136Z,51.53
2016-06-09T08:53:26.140Z,51.53
2016-06-09T08:54:26.159Z,51.82
2016-06-09T08:55:26.178Z,51.25
2016-06-09T08:56:26.229Z,49.51
2016-06-09T08:57:26.434Z,49.7
2016-06-09T08:58:26.219Z,49.8
2016-06-09T08:59:26.254Z,49.8
2016-06-09T09:00:26.099Z,50.09
2016-06-09T09:01:26.290Z,49.9
2016-06-09T09:02:26.293Z,49.8
2016-06-09T09:03:26.702Z,49.99
2016-06-09T09:04:26.330Z,49.7
2016-06-09T09:05:26.662Z,49.99
2016-06-09T09:06:26.540Z,49.99
2016-06-09T09:07:26.559Z,50.09
2016-06-09T09:08:26.359Z,49.53
2016-06-09T09:09:26.377Z,48.76
2016-06-09T09:10:26.599Z,48.08
2016-06-09T09:11:26.416Z,48.95
2016-06-09T09:12:26.433Z,49.24
2016-06-09T09:14:26.487Z,47.81
2016-06-09T09:15:26.506Z,48.59
2016-06-09T09:16:26.508Z,48.97
2016-06-09T09:17:26.496Z,48.32
2016-06-09T09:18:26.562Z,49.37
2016-06-09T09:19:26.518Z,48.11
2016-06-09T09:20:26.411Z,47.63
2016-06-09T09:21:27.086Z,48.01
2016-06-09T09:22:26.574Z,46.68
2016-06-09T09:23:26.577Z,47.36
2016-06-09T09:24:26.611Z,46.39
2016-06-09T09:25:26.864Z,46.95
2016-06-09T09:26:26.664Z,47.45
2016-06-09T09:27:27.073Z,47.53
2016-06-09T09:28:26.514Z,47.84
2016-06-09T09:29:26.704Z,48.01
2016-06-09T09:30:26.691Z,48.39
2016-06-09T09:31:26.711Z,48.39
2016-06-09T09:32:26.713Z,48.39
2016-06-09T09:33:26.763Z,48.59
2016-06-09T09:34:26.970Z,48.49
2016-06-09T09:35:26.785Z,48.39
2016-06-09T09:36:27.007Z,48.59
2016-06-09T09:37:26.791Z,48.59
2016-06-09T09:38:26.827Z,48.21
2016-06-09T09:39:26.844Z,47.63
2016-06-09T09:40:27.082Z,47.63
2016-06-09T09:41:26.882Z,47.43
2016-06-09T09:42:26.886Z,47.72
2016-06-09T09:43:26.903Z,48.21
2016-06-09T09:44:26.907Z,48.39
2016-06-09T09:45:26.910Z,48.39
2016-06-09T09:46:26.929Z,48.42
2016-06-09T09:47:27.213Z,47.94
2016-06-09T09:48:26.965Z,48.42
2016-06-09T09:49:26.969Z,48.23
2016-06-09T09:50:27.113Z,47.94
2016-06-09T09:51:27.023Z,46.39
2016-06-09T09:52:27.026Z,46.58
2016-06-09T09:53:27.044Z,46.68
2016-06-09T09:54:27.047Z,46.49
2016-06-09T09:55:27.113Z,46.68
2016-06-09T09:56:27.100Z,46.78
2016-06-09T09:57:27.102Z,46.61
2016-06-09T09:58:27.106Z,46.39
2016-06-09T09:59:27.124Z,46.51
2016-06-09T10:00:27.347Z,46.61
2016-06-09T10:01:27.209Z,46.12
2016-06-09T10:02:27.118Z,45.74
2016-06-09T10:03:27.215Z,44.96
2016-06-09T10:04:27.390Z,45.08
2016-06-09T10:05:27.221Z,45.76
2016-06-09T10:06:27.927Z,46.34
2016-06-09T10:07:27.493Z,45.95
2016-06-09T10:08:41.344Z,45.08
2016-06-09T10:10:27.299Z,44.6
2016-06-09T10:11:27.318Z,45.76
2016-06-09T10:12:27.321Z,45.86
2016-06-09T10:13:27.356Z,45.76
2016-06-09T10:14:27.593Z,45.78
2016-06-09T10:15:27.596Z,45.01
2016-06-09T10:16:27.396Z,44.5
2016-06-09T10:17:27.414Z,44.62
2016-06-09T10:18:27.417Z,44.33
2016-06-09T10:19:27.452Z,43.37
2016-06-09T10:20:28.017Z,43.46
2016-06-09T10:21:27.990Z,43.65
2016-06-09T10:22:27.711Z,42.9
2016-06-09T10:23:27.527Z,42.61
2016-06-09T10:24:27.358Z,42.61
2016-06-09T10:25:27.595Z,43.09
2016-06-09T10:26:27.801Z,42.71
2016-06-09T10:27:27.805Z,43.19
2016-06-09T10:28:27.605Z,42.13
2016-06-09T10:29:27.623Z,42.9
2016-06-09T10:30:27.626Z,42.71
2016-06-09T10:31:27.630Z,41.06
2016-06-09T10:32:41.745Z,40.28
2016-06-09T10:33:27.729Z,41.06
2016-06-09T10:34:27.701Z,41.64
2016-06-09T10:35:27.548Z,41.74
2016-06-09T10:36:27.973Z,41.93
2016-06-09T10:37:27.741Z,42.13
2016-06-09T10:38:27.744Z,41.86
2016-06-09T10:39:27.763Z,41.76
2016-06-09T10:40:27.626Z,41.55
2016-06-09T10:41:27.801Z,41.47
2016-06-09T10:42:27.820Z,41.86
2016-06-09T10:43:27.369Z,42.22
2016-06-09T10:44:28.091Z,42.61
2016-06-09T10:45:27.875Z,42.61
2016-06-09T10:46:27.911Z,42.03
2016-06-09T10:47:27.913Z,42.71
2016-06-09T10:48:28.134Z,42.9
2016-06-09T10:49:27.935Z,42.78
2016-06-09T10:50:27.812Z,43.37
2016-06-09T10:51:28.019Z,42.88
2016-06-09T10:52:27.991Z,42.97
2016-06-09T10:53:27.994Z,41.16
2016-06-09T10:54:28.013Z,41.93
2016-06-09T10:55:28.030Z,41.64
2016-06-09T10:56:28.050Z,41.16
2016-06-09T10:57:28.069Z,41.16
2016-06-09T10:58:28.087Z,41.76
2016-06-09T10:59:28.090Z,41.66
2016-06-09T11:00:28.110Z,40.69
2016-06-09T11:01:28.174Z,40.31
2016-06-09T11:02:28.147Z,40.31
2016-06-09T11:03:28.180Z,40.59
2016-06-09T11:04:28.606Z,40.4
2016-06-09T11:05:28.187Z,40.61
2016-06-09T11:06:27.752Z,39.74
2016-06-09T11:07:28.240Z,40.21
2016-06-09T11:08:42.324Z,40.5
2016-06-09T11:09:27.793Z,38.46
2016-06-09T11:10:28.281Z,39.32
2016-06-09T11:11:28.315Z,39.51
2016-06-09T11:12:28.177Z,39.12
2016-06-09T11:13:28.524Z,39.9
2016-06-09T11:14:28.339Z,40.58
2016-06-09T11:15:28.405Z,40.65
2016-06-09T11:16:28.361Z,40.58
2016-06-09T11:17:28.395Z,41.16
2016-06-09T11:18:28.820Z,40.48
2016-06-09T11:19:28.434Z,40.96
2016-06-09T11:20:28.436Z,40.28
2016-06-09T11:21:28.674Z,40.4
2016-06-09T11:22:28.489Z,40.4
2016-06-09T11:23:28.696Z,40.4
2016-06-09T11:24:28.495Z,39.92
2016-06-09T11:25:28.514Z,39.92
2016-06-09T11:26:28.533Z,40.59
2016-06-09T11:27:28.551Z,40.09
2016-06-09T11:28:28.587Z,40.09
2016-06-09T11:29:28.573Z,39.51
2016-06-09T11:30:29.077Z,40.09
2016-06-09T11:31:28.626Z,40.67
2016-06-09T11:32:28.832Z,39.88
2016-06-09T11:33:28.680Z,39.97
2016-06-09T11:34:28.698Z,40.26
2016-06-09T11:35:28.685Z,40.26
2016-06-09T11:36:28.736Z,42.4
2016-06-09T11:37:29.114Z,41.72
2016-06-09T11:38:28.257Z,42.1
2016-06-09T11:39:28.745Z,43.55
2016-06-09T11:40:28.794Z,42.1
2016-06-09T11:41:28.798Z,41.82
2016-06-09T11:42:28.800Z,42.3
2016-06-09T11:43:28.820Z,43.46
2016-06-09T11:44:28.823Z,42.03
2016-06-09T11:45:28.842Z,41.72
2016-06-09T11:46:28.876Z,42.1
2016-06-09T11:47:28.879Z,41.74
2016-06-09T11:48:28.913Z,41.64
2016-06-09T11:49:28.900Z,41.74
2016-06-09T11:50:28.919Z,40.86
2016-06-09T11:51:29.422Z,40.11
2016-06-09T11:52:29.003Z,40.69
2016-06-09T11:53:28.975Z,41.08
2016-06-09T11:54:28.995Z,41.17
2016-06-09T11:55:29.012Z,41.56
2016-06-09T11:56:29.016Z,41.3
2016-06-09T11:57:29.018Z,40.61
2016-06-09T11:58:29.054Z,39.16
2016-06-09T11:59:29.260Z,38.96
2016-06-09T12:00:29.090Z,38.58
2016-06-09T12:01:29.109Z,39.26
2016-06-09T12:02:29.112Z,40.13
2016-06-09T12:03:29.194Z,38.7
2016-06-09T12:04:29.368Z,39.47
2016-06-09T12:05:43.249Z,38.31
2016-06-09T12:06:30.531Z,39.47
2016-06-09T12:07:29.206Z,38.7
2016-06-09T12:08:29.630Z,38.7
2016-06-09T12:09:29.243Z,38.6
2016-06-09T12:10:29.449Z,39.37
2016-06-09T12:11:29.297Z,38.99
2016-06-09T12:12:29.955Z,38.79
2016-06-09T12:13:29.333Z,38.89
2016-06-09T12:14:29.164Z,38.81
2016-06-09T12:15:29.324Z,39.08
2016-06-09T12:16:29.390Z,38.7
2016-06-09T12:17:29.580Z,38.23
2016-06-09T12:18:29.615Z,37.63
2016-06-09T12:19:29.399Z,37.92
2016-06-09T12:20:29.402Z,37.53
2016-06-09T12:21:29.639Z,37.63
2016-06-09T12:22:29.439Z,38.31
2016-06-09T12:23:29.505Z,36.66
2016-06-09T12:24:29.493Z,37.43
2016-06-09T12:25:29.495Z,37.24
2016-06-09T12:26:29.515Z,37.43
2016-06-09T12:27:43.613Z,38.31
2016-06-09T12:28:29.566Z,38.02
2016-06-09T12:29:29.555Z,38.31
2016-06-09T12:30:29.433Z,37.82
2016-06-09T12:31:29.592Z,37.34
2016-06-09T12:32:29.611Z,37.53
2016-06-09T12:33:29.629Z,37.05
2016-06-09T12:34:29.882Z,37.53
2016-06-09T12:35:29.682Z,36.58
2016-06-09T12:36:29.921Z,36.97
2016-06-09T12:37:29.705Z,36.46
2016-06-09T12:38:29.755Z,36.56
2016-06-09T12:39:29.741Z,36.54
2016-06-09T12:40:29.760Z,36.66
2016-06-09T12:41:29.764Z,36.93
2016-06-09T12:42:29.782Z,37.41
2016-06-09T12:43:30.020Z,37.81
2016-06-09T12:44:30.038Z,37.13
2016-06-09T12:45:29.838Z,36.93
2016-06-09T12:46:30.076Z,36.82
2016-06-09T12:47:29.860Z,38.37
2016-06-09T12:48:30.128Z,38.37
2016-06-09T12:49:30.100Z,38.56
2016-06-09T12:50:30.120Z,38.85
2016-06-09T12:51:30.217Z,38.66
2016-06-09T12:52:29.969Z,38.85
2016-06-09T12:53:30.159Z,38.39
2016-06-09T12:54:29.990Z,39.94
2016-06-09T12:55:30.057Z,39.36
2016-06-09T12:56:30.012Z,39.36
2016-06-09T12:57:30.031Z,38.58
2016-06-09T12:58:30.238Z,39.06
2016-06-09T12:59:30.053Z,38
2016-06-09T13:00:30.275Z,37.61
2016-06-09T13:01:30.309Z,38.02
2016-06-09T13:02:30.328Z,37.15
2016-06-09T13:03:30.128Z,37.15
2016-06-09T13:04:30.131Z,36.36
2016-06-09T13:05:30.181Z,35.38
2016-06-09T13:06:30.434Z,35.77
2016-06-09T13:07:30.187Z,35.19
2016-06-09T13:08:30.206Z,35.67
2016-06-09T13:09:30.427Z,36.16
2016-06-09T13:10:30.243Z,36.06
2016-06-09T13:11:30.278Z,36.54
2016-06-09T13:12:30.296Z,37.23
2016-06-09T13:13:30.330Z,37.32
2016-06-09T13:14:30.318Z,36.74
2016-06-09T13:15:30.166Z,36.85
2016-06-09T13:16:30.589Z,36.93
2016-06-09T13:17:30.577Z,36.85
2016-06-09T13:18:30.378Z,36.95
2016-06-09T13:19:30.584Z,36.08
2016-06-09T13:20:30.399Z,36.95
2016-06-09T13:21:30.714Z,37.15
2016-06-09T13:22:30.452Z,37.34
2016-06-09T13:23:30.470Z,38.12
2016-06-09T13:24:30.207Z,37.24
2016-06-09T13:25:30.742Z,37.34
2016-06-09T13:26:30.511Z,37.63
2016-06-09T13:27:30.530Z,37.82
2016-06-09T13:28:30.970Z,37.43
2016-06-09T13:29:30.568Z,37.05
2016-06-09T13:30:30.571Z,36.85
2016-06-09T13:31:30.589Z,37.13
2016-06-09T13:32:30.592Z,37.43
2016-06-09T13:33:44.704Z,38.02
2016-06-09T13:34:30.630Z,38.31
2016-06-09T13:35:30.648Z,38.12
2016-06-09T13:36:30.683Z,37.82
2016-06-09T13:37:30.686Z,38.12
2016-06-09T13:38:30.704Z,37.92
2016-06-09T13:39:45.239Z,37.92
2016-06-09T13:40:30.742Z,38.13
2016-06-09T13:41:30.745Z,38.62
2016-06-09T13:42:30.763Z,37.73
2016-06-09T13:43:30.782Z,38.21
2016-06-09T13:44:30.800Z,38.02
2016-06-09T13:45:30.803Z,37.92
2016-06-09T13:46:30.823Z,38.21
2016-06-09T13:47:30.889Z,38.4
2016-06-09T13:48:30.892Z,38.48
2016-06-09T13:49:31.098Z,38.12
2016-06-09T13:50:30.897Z,38.19
2016-06-09T13:51:31.212Z,37.82
2016-06-09T13:52:30.919Z,38.19
2016-06-09T13:53:30.938Z,37.61
2016-06-09T13:54:30.988Z,38.29
2016-06-09T13:55:30.959Z,37.71
2016-06-09T13:56:31.447Z,37.9
2016-06-09T13:57:30.998Z,37.71
2016-06-09T13:58:31.016Z,37.71
2016-06-09T13:59:31.035Z,37.9
2016-06-09T14:00:31.069Z,37.32
2016-06-09T14:01:31.493Z,37.98
2016-06-09T14:02:31.074Z,37.98
2016-06-09T14:03:31.093Z,37.3
2016-06-09T14:04:31.112Z,37.98
2016-06-09T14:05:31.178Z,38.46
2016-06-09T14:06:31.165Z,38.85
2016-06-09T14:08:31.203Z,39.41
2016-06-09T14:09:30.737Z,39.32
2016-06-09T14:10:31.256Z,39.51
2016-06-09T14:11:31.244Z,39.8
2016-06-09T14:12:31.668Z,39.8
2016-06-09T14:13:31.264Z,39.7
2016-06-09T14:14:31.268Z,40
2016-06-09T14:15:31.489Z,39.97
2016-06-09T14:16:31.524Z,39.69
2016-06-09T14:17:31.731Z,40.56
2016-06-09T14:18:31.421Z,40.65
2016-06-09T14:19:31.346Z,40.94
2016-06-09T14:20:31.365Z,40.94
2016-06-09T14:21:31.899Z,40.94
2016-06-09T14:22:31.950Z,41.33
2016-06-09T14:23:31.420Z,41.42
2016-06-09T14:24:45.705Z,41.04
2016-06-09T14:25:31.473Z,40.65
2016-06-09T14:26:31.476Z,41.14
2016-06-09T14:27:31.480Z,41.55
2016-06-09T14:28:31.499Z,40.38
2016-06-09T14:29:31.533Z,40.48
2016-06-09T14:30:31.739Z,40.28
2016-06-09T14:31:31.742Z,39.92
2016-06-09T14:32:31.573Z,39.43
2016-06-09T14:33:31.420Z,39.04
2016-06-09T14:34:31.611Z,40.21
2016-06-09T14:35:31.598Z,40.01
2016-06-09T14:36:46.164Z,40.59
2016-06-09T14:37:32.026Z,39.43
2016-06-09T14:38:45.717Z,39.24
2016-06-09T14:39:32.673Z,39.14
2016-06-09T14:40:31.692Z,38.76
2016-06-09T14:41:31.898Z,38.66
2016-06-09T14:42:31.714Z,39.34
2016-06-09T14:43:31.919Z,38.07
2016-06-09T14:44:31.797Z,37.21
2016-06-09T14:45:31.801Z,37.59
2016-06-09T14:46:32.007Z,37.21
2016-06-09T14:47:31.994Z,37.71
2016-06-09T14:48:31.794Z,37.41
2016-06-09T14:49:32.017Z,37.41
2016-06-09T14:50:32.051Z,37.13
2016-06-09T14:51:32.225Z,38.09
2016-06-09T14:52:31.885Z,38.19
2016-06-09T14:53:31.887Z,38
2016-06-09T14:54:32.297Z,37.53
2016-06-09T14:55:31.909Z,37.13
2016-06-09T14:56:46.022Z,36.95
2016-06-09T14:57:31.963Z,36.76
2016-06-09T14:58:31.982Z,37.43
2016-06-09T14:59:31.985Z,36.95
2016-06-09T15:00:32.253Z,36.77
2016-06-09T15:01:32.053Z,36.48
2016-06-09T15:02:32.056Z,36.68
2016-06-09T15:03:32.059Z,35.9
2016-06-09T15:04:32.062Z,36
2016-06-09T15:05:32.097Z,37.26
2016-06-09T15:06:32.099Z,36
2016-06-09T15:07:32.119Z,35.72
2016-06-09T15:08:31.683Z,35.33
2016-06-09T15:09:32.156Z,36.02
2016-06-09T15:10:32.206Z,35.24
2016-06-09T15:11:32.209Z,36.21
2016-06-09T15:12:32.618Z,35.33
2016-06-09T15:13:32.231Z,36.4
2016-06-09T15:14:32.281Z,35.82
2016-06-09T15:15:32.471Z,35.14
2016-06-09T15:16:32.319Z,34.85
2016-06-09T15:17:32.306Z,34.85
2016-06-09T15:18:32.324Z,35.14
2016-06-09T15:19:32.327Z,35.92
2016-06-09T15:20:32.377Z,35.33
2016-06-09T15:21:32.395Z,36.02
2016-06-09T15:22:32.665Z,35.72
2016-06-09T15:23:32.402Z,36.02
2016-06-09T15:24:32.405Z,36.89
2016-06-09T15:25:32.439Z,36.97
2016-06-09T15:26:32.896Z,36.02
2016-06-09T15:27:32.477Z,36.87
2016-06-09T15:28:32.480Z,37.26
2016-06-09T15:29:32.889Z,37.35
2016-06-09T15:30:32.720Z,36.95
2016-06-09T15:31:32.724Z,36.95
2016-06-09T15:32:32.570Z,36.56
2016-06-09T15:33:32.574Z,37.05
2016-06-09T15:34:32.763Z,37.53
2016-06-09T15:35:32.595Z,37.15
2016-06-09T15:36:32.598Z,36.66
2016-06-09T15:37:33.180Z,36.66
2016-06-09T15:38:32.651Z,36.44
2016-06-09T15:39:32.654Z,37.34
2016-06-09T15:40:32.876Z,37.13
2016-06-09T15:41:32.692Z,37.32
2016-06-09T15:42:32.710Z,37.13
2016-06-09T15:43:32.745Z,36.27
2016-06-09T15:44:32.763Z,37.15
2016-06-09T15:45:32.766Z,37.63
2016-06-09T15:46:33.036Z,37.34
2016-06-09T15:47:33.039Z,37.82
2016-06-09T15:48:32.822Z,37.53
2016-06-09T15:49:32.856Z,37.71
2016-06-09T15:50:32.860Z,37.43
2016-06-09T15:51:32.862Z,36.54
2016-06-09T15:52:32.898Z,36.83
2016-06-09T15:53:33.104Z,37.13
2016-06-09T15:54:32.904Z,37.13
2016-06-09T15:55:32.938Z,37.13
2016-06-09T15:57:33.178Z,37.51
2016-06-09T15:58:32.978Z,37.79
2016-06-09T15:59:33.309Z,37.49
2016-06-09T16:00:33.016Z,37.98
2016-06-09T16:01:33.051Z,37.49
2016-06-09T16:02:33.038Z,37.11
2016-06-09T16:03:33.056Z,37.01
2016-06-09T16:04:33.903Z,37.28
2016-06-09T16:05:33.093Z,37.28
2016-06-09T16:06:33.128Z,37.67
2016-06-09T16:07:33.725Z,37.96
2016-06-09T16:08:33.165Z,37.87
2016-06-09T16:09:47.231Z,39.03
2016-06-09T16:10:33.187Z,39.9
2016-06-09T16:11:33.393Z,40.48
2016-06-09T16:12:33.615Z,40
2016-06-09T16:13:33.244Z,39.7
2016-06-09T16:14:33.480Z,38.93
2016-06-09T16:15:33.250Z,39.03
2016-06-09T16:17:33.270Z,39.41
2016-06-09T16:18:33.321Z,39.12
2016-06-09T16:19:33.323Z,39.12
2016-06-09T16:20:33.765Z,39.03
2016-06-09T16:21:33.346Z,39.41
2016-06-09T16:22:34.036Z,39.2
2016-06-09T16:23:33.368Z,39.11
2016-06-09T16:24:33.589Z,39.2
2016-06-09T16:25:33.639Z,39.29
2016-06-09T16:26:33.845Z,39.69
2016-06-09T16:28:33.461Z,40.07
2016-06-09T16:29:33.465Z,41.04
2016-06-09T16:30:33.733Z,40.63
2016-06-09T16:31:33.518Z,40.25
2016-06-09T16:32:33.958Z,40.63
2016-06-09T16:33:33.570Z,40.34
2016-06-09T16:34:33.542Z,39.37
2016-06-09T16:35:33.561Z,40.05
2016-06-09T16:36:33.783Z,40.25
2016-06-09T16:37:33.864Z,40.83
2016-06-09T16:38:33.804Z,42.08
2016-06-09T16:39:33.605Z,41.31
2016-06-09T16:40:33.654Z,41.21
2016-06-09T16:41:33.641Z,41.41
2016-06-09T16:42:33.864Z,41.5
2016-06-09T16:43:33.680Z,41.5
2016-06-09T16:44:33.697Z,41.5
2016-06-09T16:45:33.716Z,41.58
2016-06-09T16:46:33.720Z,41.58
2016-06-09T16:47:33.738Z,41.97
2016-06-09T16:49:33.776Z,42.16
2016-06-09T16:50:33.779Z,42.62
2016-06-09T16:51:33.797Z,41.94
2016-06-09T16:52:34.332Z,41.94
2016-06-09T16:53:33.820Z,42.33
2016-06-09T16:54:33.884Z,42.82
2016-06-09T16:55:33.857Z,43.2
2016-06-09T16:56:33.875Z,43.3
2016-06-09T16:57:34.113Z,43.59
2016-06-09T16:58:33.913Z,43.47
2016-06-09T16:59:34.118Z,43.37
2016-06-09T17:00:33.935Z,44.63
2016-06-09T17:01:34.141Z,44.24
2016-06-09T17:02:33.956Z,45.79
2016-06-09T17:03:33.975Z,46.37
2016-06-09T17:04:34.415Z,45.21
2016-06-09T17:05:33.998Z,45.5
2016-06-09T17:06:34.015Z,46.27
2016-06-09T17:07:35.300Z,46.17
2016-06-09T17:08:33.584Z,46.17
2016-06-09T17:09:34.056Z,46.17
2016-06-09T17:10:34.075Z,46.56
2016-06-09T17:11:48.358Z,47.14
2016-06-09T17:12:34.315Z,46.37
2016-06-09T17:13:48.192Z,46.08
2016-06-09T17:14:34.134Z,45.79
2016-06-09T17:15:34.153Z,45.4
2016-06-09T17:16:34.359Z,45.98
2016-06-09T17:17:34.409Z,46.37
2016-06-09T17:18:34.600Z,47.14
2016-06-09T17:19:34.494Z,47.33
2016-06-09T17:20:34.621Z,46.34
2016-06-09T17:22:34.628Z,46.95
2016-06-09T17:23:35.317Z,47.53
2016-06-09T17:24:34.306Z,47.24
2016-06-09T17:25:34.386Z,46.37
2016-06-09T17:26:34.515Z,46.56
2016-06-09T17:27:34.314Z,46.54
2016-06-09T17:28:34.318Z,46.34
2016-06-09T17:29:34.352Z,46.92
2016-06-09T17:30:34.355Z,47.02
2016-06-09T17:31:34.369Z,47.31
2016-06-09T17:32:34.648Z,47.31
2016-06-09T17:33:34.490Z,46.92
2016-06-09T17:34:34.785Z,47.6
2016-06-09T17:35:34.377Z,47.7
2016-06-09T17:36:34.648Z,47.8
2016-06-09T17:37:48.745Z,47.6
2016-06-09T17:38:34.576Z,47.8
2016-06-09T17:39:34.578Z,47.8
2016-06-09T17:40:34.784Z,48.76
2016-06-09T17:41:34.799Z,48.47
2016-06-09T17:42:34.807Z,48.86
2016-06-09T17:43:34.348Z,49.24
2016-06-09T17:44:34.872Z,48.76
2016-06-09T17:45:34.896Z,48.86
2016-06-09T17:46:35.481Z,48.95
2016-06-09T17:47:34.924Z,49.24
2016-06-09T17:48:34.913Z,47.8
2016-06-09T17:49:34.934Z,47.99
2016-06-09T17:50:34.939Z,47.8
2016-06-09T17:51:34.803Z,47.7
2016-06-09T17:52:35.103Z,46.92
2016-06-09T17:53:35.202Z,46.92
2016-06-09T17:54:35.236Z,46.54
2016-06-09T17:55:35.037Z,47.02
2016-06-09T17:56:35.446Z,46.25
2016-06-09T17:57:35.044Z,46.44
2016-06-09T17:58:35.126Z,46.54
2016-06-09T17:59:35.082Z,47.12
2016-06-09T18:00:35.149Z,47.02
2016-06-09T18:01:35.402Z,46.83
2016-06-09T18:02:35.138Z,47.31
2016-06-09T18:03:35.127Z,47.31
2016-06-09T18:04:35.176Z,47.29
2016-06-09T18:05:35.164Z,47.58
2016-06-09T18:06:35.167Z,47.48
2016-06-09T18:07:35.202Z,47.58
2016-06-09T18:08:35.204Z,47.19
2016-06-09T18:09:35.410Z,47.29
2016-06-09T18:10:35.210Z,47.48
2016-06-09T18:11:35.464Z,47.38
2016-06-09T18:12:35.263Z,47.29
2016-06-09T18:13:35.486Z,47.29
2016-06-09T18:14:35.286Z,47.67
2016-06-09T18:16:35.307Z,48.03
2016-06-09T18:17:35.420Z,47.85
